Terminal Aerodrome Forecast
Issued by NWS

Home | Current Version | Previous Version | Text Only | Print | Product List | Glossary On
Versions: 1 2 3 4 5 6 7 8 9 10 11 12 13 14 15 16 17 18
000
FTUS44 KLZK 260500 RRA
TAFPBF
TAF
KPBF 260540Z 2606/2706 VRB05KT P6SM -RA SCT015 OVC100
      TEMPO 2606/2610 5SM BR BKN015
     FM261000 18007KT 5SM BR OVC015
     FM261400 20008KT P6SM BKN025
     FM261800 22007KT P6SM BKN050
     FM270000 18004KT P6SM BKN250=

USA.gov is the U.S. government's official web portal to all federal, state and local government web resources and services.